Time;durP1;ratioP1;P1;durP2;ratioP2;P2;SDS_P1;SDS_P2;PMS_P1;PMS_P2;Temp;Humidity;BMP_temperature;BMP_pressure;BME280_temperature;BME280_humidity;BME280_pressure;Samples;Min_cycle;Max_cycle;Signal;HPM_P1;HPM_P2
2021/11/03 00:00:58;;;;;;;11.40;5.70;;;4.90;99.90;;;;;;5071525;28;20027;-62
2021/11/03 00:03:25;;;;;;;8.63;5.88;;;4.90;99.90;;;;;;5070532;28;20032;-63
2021/11/03 00:05:51;;;;;;;10.77;7.00;;;4.90;99.90;;;;;;5071731;28;20022;-63
2021/11/03 00:08:20;;;;;;;9.27;5.82;;;4.80;99.90;;;;;;5071042;28;20394;-63
2021/11/03 00:10:48;;;;;;;7.15;5.03;;;4.70;99.90;;;;;;5071416;28;20017;-62
2021/11/03 00:13:16;;;;;;;7.75;5.10;;;4.60;99.90;;;;;;5070966;28;20032;-62
2021/11/03 00:15:42;;;;;;;11.32;5.07;;;4.50;99.90;;;;;;5071462;28;20029;-62
2021/11/03 00:18:08;;;;;;;11.85;5.72;;;4.50;99.90;;;;;;5054147;28;20032;-62
2021/11/03 00:20:35;;;;;;;16.10;5.45;;;4.60;99.90;;;;;;5070839;28;20445;-62
2021/11/03 00:23:00;;;;;;;12.00;6.00;;;4.60;99.90;;;;;;5069572;28;20103;-62
2021/11/03 00:25:26;;;;;;;9.95;6.15;;;4.70;99.90;;;;;;5072108;28;20115;-62
2021/11/03 00:27:52;;;;;;;9.60;5.43;;;4.70;99.90;;;;;;5071263;28;20024;-62
2021/11/03 00:30:18;;;;;;;11.48;5.47;;;4.70;99.90;;;;;;5069310;28;20555;-62
2021/11/03 00:32:48;;;;;;;10.48;6.35;;;4.70;99.90;;;;;;5069806;28;20036;-63
2021/11/03 00:35:14;;;;;;;9.50;6.40;;;4.60;99.90;;;;;;5070883;28;20070;-62
2021/11/03 00:37:40;;;;;;;8.57;5.50;;;4.60;99.90;;;;;;5070173;28;20025;-62
2021/11/03 00:40:06;;;;;;;7.72;4.60;;;4.40;99.90;;;;;;5071058;28;20035;-61
2021/11/03 00:42:32;;;;;;;8.82;4.28;;;4.30;99.90;;;;;;5070162;28;20502;-61
2021/11/03 00:44:58;;;;;;;7.97;4.85;;;4.30;99.90;;;;;;5070370;28;20090;-62
2021/11/03 00:47:24;;;;;;;10.82;5.40;;;4.30;99.90;;;;;;5070435;28;20086;-63
2021/11/03 00:49:49;;;;;;;13.10;5.30;;;4.30;99.90;;;;;;5062917;28;20032;-61
2021/11/03 00:52:15;;;;;;;8.60;5.20;;;4.30;99.90;;;;;;5066295;28;20028;-64
2021/11/03 00:54:40;;;;;;;12.75;6.22;;;4.20;99.90;;;;;;5070661;28;20113;-63
2021/11/03 00:57:06;;;;;;;11.05;7.00;;;4.20;99.90;;;;;;5069999;28;20048;-62
2021/11/03 00:59:32;;;;;;;12.52;6.78;;;4.20;99.90;;;;;;5070473;28;20032;-63
2021/11/03 01:01:57;;;;;;;11.35;6.63;;;4.20;99.90;;;;;;5070067;28;20029;-62
2021/11/03 01:04:23;;;;;;;10.70;6.40;;;4.20;99.90;;;;;;5068677;28;20024;-63
2021/11/03 01:06:49;;;;;;;11.02;6.55;;;4.30;99.90;;;;;;5070657;28;20040;-62
2021/11/03 01:09:15;;;;;;;14.45;6.38;;;4.40;99.90;;;;;;5069765;28;20044;-62
2021/11/03 01:11:40;;;;;;;10.15;5.45;;;4.40;99.90;;;;;;5068233;28;20020;-62
2021/11/03 01:14:07;;;;;;;10.85;5.75;;;4.50;99.90;;;;;;5069323;28;20119;-62
2021/11/03 01:16:33;;;;;;;10.98;6.47;;;4.50;99.90;;;;;;5053006;28;20111;-62
2021/11/03 01:18:59;;;;;;;16.92;6.10;;;4.60;99.90;;;;;;5069619;28;20029;-62
2021/11/03 01:21:24;;;;;;;11.23;6.15;;;4.60;99.90;;;;;;5068945;28;20498;-61
2021/11/03 01:23:51;;;;;;;14.30;6.50;;;4.70;99.90;;;;;;5065901;28;20024;-63
2021/11/03 01:26:17;;;;;;;12.82;5.70;;;4.70;99.90;;;;;;5070269;28;20028;-64
2021/11/03 01:28:43;;;;;;;10.02;6.00;;;4.80;99.90;;;;;;5069611;28;20053;-63
2021/11/03 01:31:08;;;;;;;16.63;6.55;;;4.80;99.90;;;;;;5070277;28;20067;-62
2021/11/03 01:33:34;;;;;;;11.20;7.00;;;4.80;99.90;;;;;;5068449;28;20445;-63
2021/11/03 01:35:59;;;;;;;10.45;5.90;;;4.70;99.90;;;;;;5069384;28;20032;-63
2021/11/03 01:38:25;;;;;;;9.75;5.10;;;4.60;99.90;;;;;;5068986;28;20517;-62
2021/11/03 01:40:51;;;;;;;8.60;6.18;;;4.60;99.90;;;;;;5065630;28;20090;-63
2021/11/03 01:43:58;;;;;;;19.30;6.30;;;4.50;99.90;;;;;;5068510;28;20042;-63
2021/11/03 01:46:27;;;;;;;10.57;6.25;;;4.50;99.90;;;;;;5069654;28;20399;-63
2021/11/03 01:49:01;;;;;;;11.43;6.32;;;4.40;99.90;;;;;;5068675;28;20494;-63
2021/11/03 01:51:39;;;;;;;9.45;5.95;;;4.40;99.90;;;;;;5063997;28;20036;-63
2021/11/03 01:54:09;;;;;;;10.80;6.10;;;4.40;99.90;;;;;;5069063;28;20020;-63
2021/11/03 01:56:36;;;;;;;8.52;6.20;;;4.40;99.90;;;;;;5070569;28;20028;-62
2021/11/03 01:59:08;;;;;;;13.73;6.88;;;4.40;99.90;;;;;;5069200;28;20552;-63
2021/11/03 02:01:34;;;;;;;11.68;6.38;;;4.40;99.90;;;;;;5069487;28;20021;-64
2021/11/03 02:04:00;;;;;;;11.20;6.25;;;4.40;99.90;;;;;;5068596;28;20544;-63
2021/11/03 02:06:27;;;;;;;12.57;7.28;;;4.40;99.90;;;;;;5069773;28;20029;-62
2021/11/03 02:08:54;;;;;;;13.55;7.55;;;4.50;99.90;;;;;;5069630;28;20063;-63
2021/11/03 02:11:24;;;;;;;13.15;7.18;;;4.60;99.90;;;;;;5067103;28;20037;-62
2021/11/03 02:13:50;;;;;;;13.23;7.70;;;4.60;99.90;;;;;;5068369;28;20036;-62
2021/11/03 02:16:18;;;;;;;16.90;8.20;;;4.60;99.90;;;;;;5069741;28;20063;-60
2021/11/03 02:18:44;;;;;;;13.63;7.40;;;4.60;99.90;;;;;;5050849;28;20029;-61
2021/11/03 02:21:15;;;;;;;11.52;7.70;;;4.60;99.90;;;;;;5069501;28;20020;-60
2021/11/03 02:23:56;;;;;;;12.27;7.55;;;4.60;99.90;;;;;;5064668;28;20115;-63
2021/11/03 02:26:29;;;;;;;14.35;7.97;;;4.50;99.90;;;;;;5069496;28;20024;-63
2021/11/03 02:28:56;;;;;;;12.63;7.40;;;4.50;99.90;;;;;;5068090;28;20067;-61
2021/11/03 02:31:28;;;;;;;11.65;7.88;;;4.50;99.90;;;;;;5065838;28;20043;-63
2021/11/03 02:33:53;;;;;;;14.73;7.90;;;4.50;99.90;;;;;;5070133;28;20203;-63
2021/11/03 02:36:19;;;;;;;15.48;8.52;;;4.50;99.90;;;;;;5070073;28;20048;-63
2021/11/03 02:38:44;;;;;;;15.00;8.15;;;4.50;99.90;;;;;;5070104;28;20506;-63
2021/11/03 02:41:18;;;;;;;10.30;7.30;;;4.50;99.90;;;;;;5070147;28;20021;-63
2021/11/03 02:43:50;;;;;;;10.27;6.17;;;4.60;99.90;;;;;;5069679;28;20016;-61
2021/11/03 02:46:16;;;;;;;22.60;8.93;;;4.60;99.90;;;;;;5070511;28;20513;-62
2021/11/03 02:48:44;;;;;;;18.10;8.25;;;4.70;99.90;;;;;;5069136;28;20028;-61
2021/11/03 02:51:11;;;;;;;16.60;9.10;;;4.80;99.90;;;;;;5070523;28;20066;-62
2021/11/03 02:53:50;;;;;;;15.50;8.93;;;4.80;99.90;;;;;;5070291;28;20025;-63
2021/11/03 02:56:20;;;;;;;26.20;9.70;;;4.90;99.90;;;;;;5074244;28;20032;-61
2021/11/03 02:58:46;;;;;;;23.33;10.48;;;4.90;99.90;;;;;;5073555;28;20060;-63
2021/11/03 03:01:20;;;;;;;15.23;8.48;;;4.90;99.90;;;;;;5073931;28;20025;-63
2021/11/03 03:03:46;;;;;;;27.48;10.68;;;5.00;99.90;;;;;;5073333;28;20510;-63
2021/11/03 03:06:20;;;;;;;18.85;10.35;;;5.00;99.90;;;;;;5073747;28;20043;-63
2021/11/03 03:08:46;;;;;;;16.77;9.95;;;5.00;99.90;;;;;;5073777;28;20039;-63
2021/11/03 03:11:12;;;;;;;19.48;9.88;;;5.10;99.90;;;;;;5074043;28;20116;-64
2021/11/03 03:13:38;;;;;;;19.50;10.02;;;5.10;99.90;;;;;;5073147;28;20095;-64
2021/11/03 03:16:04;;;;;;;22.73;10.98;;;5.10;99.90;;;;;;5073635;28;20020;-63
2021/11/03 03:18:30;;;;;;;21.08;11.07;;;5.10;99.90;;;;;;5073654;28;20032;-63
2021/11/03 03:20:55;;;;;;;18.88;10.52;;;5.20;99.90;;;;;;5071883;28;20029;-63
2021/11/03 03:23:21;;;;;;;24.55;11.73;;;5.30;99.90;;;;;;5073146;28;20073;-63
2021/11/03 03:25:47;;;;;;;34.25;11.35;;;5.30;99.90;;;;;;5073209;28;20024;-62
2021/11/03 03:28:16;;;;;;;46.40;12.75;;;5.40;99.90;;;;;;5072978;28;20024;-62
2021/11/03 03:30:42;;;;;;;24.65;13.20;;;5.40;99.90;;;;;;5073396;28;20052;-63
2021/11/03 03:33:07;;;;;;;23.00;12.93;;;5.40;99.90;;;;;;5072572;28;20528;-62
2021/11/03 03:35:33;;;;;;;27.40;13.52;;;5.40;99.90;;;;;;5073448;28;20028;-62
2021/11/03 03:37:58;;;;;;;27.02;13.88;;;5.40;99.90;;;;;;5072930;28;20437;-63
2021/11/03 03:40:24;;;;;;;25.77;12.90;;;5.40;99.90;;;;;;5073524;28;20440;-63
2021/11/03 03:42:50;;;;;;;31.58;13.10;;;5.30;99.90;;;;;;5085309;23;20067;-61
2021/11/03 03:45:15;;;;;;;25.38;13.68;;;5.40;99.90;;;;;;5051702;28;20029;-61
2021/11/03 03:47:41;;;;;;;29.50;12.60;;;5.40;99.90;;;;;;5051594;28;20070;-61
2021/11/03 03:50:08;;;;;;;24.67;12.27;;;5.30;99.90;;;;;;5051844;28;20082;-61
2021/11/03 03:52:33;;;;;;;29.80;14.30;;;5.30;99.90;;;;;;5052508;28;20033;-60
2021/11/03 03:54:59;;;;;;;26.23;14.38;;;5.40;99.90;;;;;;5051766;28;20019;-61
2021/11/03 03:57:24;;;;;;;23.90;12.20;;;5.40;99.90;;;;;;5051091;28;20033;-61
2021/11/03 03:59:50;;;;;;;30.30;13.52;;;5.40;99.90;;;;;;5051256;28;20056;-60
2021/11/03 04:02:16;;;;;;;25.35;12.57;;;5.40;99.90;;;;;;5051268;28;20096;-61
2021/11/03 04:04:41;;;;;;;26.40;12.50;;;5.30;99.90;;;;;;5051472;28;20108;-61
2021/11/03 04:07:07;;;;;;;26.80;11.80;;;5.30;99.90;;;;;;5050614;28;20025;-61
2021/11/03 04:09:32;;;;;;;25.45;12.27;;;5.30;99.90;;;;;;5051478;28;20506;-62
2021/11/03 04:11:58;;;;;;;28.52;13.10;;;5.40;99.90;;;;;;5051262;28;20033;-61
2021/11/03 04:14:24;;;;;;;27.15;13.32;;;5.40;99.90;;;;;;5051634;28;20395;-62
2021/11/03 04:16:50;;;;;;;27.85;13.07;;;5.30;99.90;;;;;;5050935;28;20029;-61
2021/11/03 04:19:16;;;;;;;29.50;13.52;;;5.40;99.90;;;;;;5051323;28;20044;-62
2021/11/03 04:21:42;;;;;;;29.73;12.07;;;5.30;99.90;;;;;;5051066;28;20017;-62
2021/11/03 04:24:08;;;;;;;26.83;12.60;;;5.30;99.90;;;;;;5056335;28;20017;-61
2021/11/03 04:26:36;;;;;;;30.80;13.30;;;5.30;99.90;;;;;;5050056;28;20100;-62
2021/11/03 04:29:03;;;;;;;35.22;13.60;;;5.30;99.90;;;;;;5052396;28;20116;-62
2021/11/03 04:31:29;;;;;;;31.50;12.98;;;5.40;99.90;;;;;;5051116;28;20130;-62
2021/11/03 04:33:55;;;;;;;33.15;11.98;;;5.40;99.90;;;;;;5056203;28;20017;-62
2021/11/03 04:36:22;;;;;;;29.45;13.57;;;5.40;99.90;;;;;;5051028;28;20099;-61
2021/11/03 04:38:49;;;;;;;27.50;13.27;;;5.40;99.90;;;;;;5050276;28;20037;-62
2021/11/03 04:41:15;;;;;;;28.75;13.57;;;5.40;99.90;;;;;;5050215;28;20031;-60
2021/11/03 04:43:41;;;;;;;34.17;15.48;;;5.40;99.90;;;;;;5051205;28;20025;-60
2021/11/03 04:46:06;;;;;;;25.15;11.57;;;5.40;99.90;;;;;;5052537;28;20082;-62
2021/11/03 04:48:32;;;;;;;32.35;12.93;;;5.40;99.90;;;;;;5050278;28;20033;-62
2021/11/03 04:50:58;;;;;;;28.52;12.77;;;5.40;99.90;;;;;;5049561;28;20470;-62
2021/11/03 04:53:24;;;;;;;28.20;11.75;;;5.50;99.90;;;;;;5049991;28;20116;-62
2021/11/03 04:55:53;;;;;;;29.63;13.20;;;5.50;99.90;;;;;;5050242;28;20096;-61
2021/11/03 04:58:19;;;;;;;33.85;13.82;;;5.60;99.90;;;;;;5032918;28;20041;-61
2021/11/03 05:00:46;;;;;;;35.53;14.73;;;5.50;99.90;;;;;;5050199;28;20494;-62
2021/11/03 05:03:12;;;;;;;36.38;14.70;;;5.50;99.90;;;;;;5050369;28;20024;-62
2021/11/03 05:05:38;;;;;;;31.98;14.60;;;5.50;99.90;;;;;;5052073;28;20395;-63
2021/11/03 05:08:04;;;;;;;32.08;13.82;;;5.50;99.90;;;;;;5049869;28;20025;-62
2021/11/03 05:10:30;;;;;;;37.17;14.57;;;5.50;99.90;;;;;;5049968;28;20047;-61
2021/11/03 05:12:55;;;;;;;31.25;13.93;;;5.50;99.90;;;;;;5049742;28;20029;-61
2021/11/03 05:15:21;;;;;;;48.13;15.57;;;5.50;99.90;;;;;;5049992;28;20384;-60
2021/11/03 05:17:47;;;;;;;32.35;14.65;;;5.60;99.90;;;;;;5049286;28;20425;-62
2021/11/03 05:20:15;;;;;;;32.38;14.07;;;5.70;99.90;;;;;;5049564;28;20475;-60
2021/11/03 05:22:41;;;;;;;32.08;14.35;;;5.70;99.90;;;;;;5049492;28;20471;-61
2021/11/03 05:25:07;;;;;;;25.30;12.75;;;5.70;99.90;;;;;;5049257;28;20032;-61
2021/11/03 05:27:32;;;;;;;35.38;15.27;;;5.70;99.90;;;;;;5049873;28;20028;-60
2021/11/03 05:29:58;;;;;;;32.28;14.80;;;5.80;99.90;;;;;;5049288;28;20036;-61
2021/11/03 05:32:24;;;;;;;29.23;14.15;;;5.80;99.90;;;;;;5049287;28;20075;-60
2021/11/03 05:34:50;;;;;;;31.70;14.27;;;5.80;99.90;;;;;;5046881;28;20031;-62
2021/11/03 05:37:17;;;;;;;28.10;13.65;;;5.80;99.90;;;;;;5049391;28;20491;-60
2021/11/03 05:39:44;;;;;;;35.75;14.80;;;5.80;99.90;;;;;;5048719;28;20043;-61
2021/11/03 05:42:10;;;;;;;32.17;14.20;;;5.90;99.90;;;;;;5047474;28;20705;-61
2021/11/03 05:44:36;;;;;;;33.63;15.68;;;5.90;99.90;;;;;;5047090;28;20078;-62
2021/11/03 05:47:03;;;;;;;38.72;16.50;;;5.90;99.90;;;;;;5049214;28;20025;-61
2021/11/03 05:49:32;;;;;;;34.35;15.38;;;6.00;99.90;;;;;;5049862;28;20036;-62
2021/11/03 05:52:00;;;;;;;37.15;17.13;;;5.90;99.90;;;;;;5048962;28;20497;-61
2021/11/03 05:54:27;;;;;;;36.72;15.98;;;6.00;99.90;;;;;;5049127;28;20033;-61
2021/11/03 05:56:55;;;;;;;38.08;15.80;;;6.00;99.90;;;;;;5049269;28;20491;-58
2021/11/03 05:59:20;;;;;;;34.65;15.98;;;6.00;99.90;;;;;;5049349;28;20051;-58
2021/11/03 06:01:46;;;;;;;37.42;15.48;;;6.00;99.90;;;;;;5047856;28;20025;-58
2021/11/03 06:04:11;;;;;;;38.25;16.40;;;6.10;99.90;;;;;;5053428;28;20029;-59
2021/11/03 06:06:37;;;;;;;35.75;16.02;;;6.10;99.90;;;;;;5049047;28;20480;-61
2021/11/03 06:09:04;;;;;;;37.25;17.00;;;6.10;99.90;;;;;;5048339;28;20475;-57
2021/11/03 06:11:31;;;;;;;34.38;14.90;;;6.10;99.90;;;;;;5046047;28;20086;-56
2021/11/03 06:13:57;;;;;;;36.15;14.25;;;6.10;99.90;;;;;;5047888;28;20029;-55
2021/11/03 06:16:23;;;;;;;36.13;15.73;;;6.20;99.90;;;;;;5048060;28;20037;-60
2021/11/03 06:18:51;;;;;;;48.15;16.50;;;6.20;99.90;;;;;;5048536;28;20483;-60
2021/11/03 06:21:17;;;;;;;32.45;14.77;;;6.20;99.90;;;;;;5049728;28;20376;-58
2021/11/03 06:23:43;;;;;;;37.08;16.88;;;6.20;99.90;;;;;;5048853;28;20036;-59
2021/11/03 06:26:10;;;;;;;32.03;14.50;;;6.20;99.90;;;;;;5049277;28;20549;-56
2021/11/03 06:28:36;;;;;;;35.78;15.40;;;6.20;99.90;;;;;;5048272;28;20495;-60
2021/11/03 06:31:01;;;;;;;32.65;15.27;;;6.20;99.90;;;;;;5052757;28;20021;-61
2021/11/03 06:33:27;;;;;;;33.72;14.95;;;6.20;99.90;;;;;;5053209;28;20040;-59
2021/11/03 06:35:54;;;;;;;33.10;14.95;;;6.20;99.90;;;;;;5052509;28;20029;-58
2021/11/03 06:38:19;;;;;;;28.95;14.05;;;6.20;99.90;;;;;;5052930;28;20475;-57
2021/11/03 06:40:45;;;;;;;37.08;15.48;;;6.20;99.90;;;;;;5052862;28;20028;-58
2021/11/03 06:43:12;;;;;;;31.20;14.90;;;6.30;99.90;;;;;;5052653;28;20167;-59
2021/11/03 06:45:38;;;;;;;36.47;15.00;;;6.30;99.90;;;;;;5052819;28;20544;-59
2021/11/03 06:48:04;;;;;;;33.70;15.25;;;6.30;99.90;;;;;;5052551;28;20037;-54
2021/11/03 06:50:34;;;;;;;33.67;15.60;;;6.30;99.90;;;;;;5053114;28;20497;-55
2021/11/03 06:53:01;;;;;;;29.27;14.45;;;6.30;99.90;;;;;;5052561;28;20036;-57
2021/11/03 06:55:28;;;;;;;31.33;15.23;;;6.30;99.90;;;;;;5053070;28;20033;-58
2021/11/03 06:57:56;;;;;;;27.02;13.80;;;6.30;99.90;;;;;;5052966;28;20063;-57
2021/11/03 07:00:26;;;;;;;36.33;15.60;;;6.30;99.90;;;;;;5047019;28;20032;-58
2021/11/03 07:02:52;;;;;;;32.50;15.02;;;6.40;99.90;;;;;;5052943;28;20029;-59
2021/11/03 07:05:18;;;;;;;30.30;15.48;;;6.40;99.90;;;;;;5043375;28;20032;-60
2021/11/03 07:07:43;;;;;;;27.17;14.15;;;6.40;99.90;;;;;;5047941;28;20532;-60
2021/11/03 07:10:12;;;;;;;35.55;16.17;;;6.40;99.90;;;;;;5053092;28;20032;-55
2021/11/03 07:12:37;;;;;;;35.13;16.27;;;6.40;99.90;;;;;;5052714;28;20036;-60
2021/11/03 07:15:03;;;;;;;30.38;13.25;;;6.40;99.90;;;;;;5051867;28;20037;-57
2021/11/03 07:17:29;;;;;;;32.20;14.75;;;6.40;99.90;;;;;;5052234;28;20104;-58
2021/11/03 07:19:54;;;;;;;32.63;16.02;;;6.30;99.90;;;;;;5052938;28;20040;-57
2021/11/03 07:22:20;;;;;;;31.85;14.27;;;6.30;99.90;;;;;;5051959;28;20032;-58
2021/11/03 07:24:46;;;;;;;32.60;14.95;;;6.40;99.90;;;;;;5050409;28;20041;-58
2021/11/03 07:27:11;;;;;;;36.00;16.52;;;6.40;99.90;;;;;;5050189;28;20028;-58
2021/11/03 07:29:40;;;;;;;31.83;14.68;;;6.40;99.90;;;;;;5052489;28;20025;-60
2021/11/03 07:32:06;;;;;;;30.23;14.93;;;6.40;99.90;;;;;;5050594;28;20486;-60
2021/11/03 07:34:32;;;;;;;30.05;14.75;;;6.40;99.90;;;;;;5051208;28;20486;-58
2021/11/03 07:36:58;;;;;;;34.03;15.23;;;6.50;99.90;;;;;;5051243;28;20041;-56
2021/11/03 07:39:23;;;;;;;27.40;14.13;;;6.50;99.90;;;;;;5051617;28;20065;-59
2021/11/03 07:41:49;;;;;;;30.60;14.57;;;6.60;99.90;;;;;;5049878;28;20380;-59
2021/11/03 07:44:16;;;;;;;30.77;14.98;;;6.70;99.90;;;;;;5049703;28;20395;-60
2021/11/03 07:46:41;;;;;;;29.58;16.20;;;6.70;99.90;;;;;;5050876;28;20036;-59
2021/11/03 07:49:07;;;;;;;27.42;14.05;;;6.80;99.90;;;;;;5052401;28;20029;-58
2021/11/03 07:51:33;;;;;;;26.67;13.52;;;6.80;99.90;;;;;;5051221;28;20399;-58
2021/11/03 07:53:59;;;;;;;29.90;14.45;;;6.80;99.90;;;;;;5049093;28;20036;-58
2021/11/03 07:56:27;;;;;;;30.27;13.95;;;6.80;99.90;;;;;;5050665;28;20066;-58
2021/11/03 07:58:54;;;;;;;23.42;13.05;;;6.90;99.90;;;;;;5051609;28;20167;-60
2021/11/03 08:01:20;;;;;;;31.60;14.73;;;6.90;99.90;;;;;;5049166;28;20025;-60
2021/11/03 08:03:46;;;;;;;28.85;13.75;;;6.90;99.90;;;;;;5049636;28;20641;-60
2021/11/03 08:06:12;;;;;;;25.90;12.77;;;6.90;99.90;;;;;;5049120;28;20025;-58
2021/11/03 08:08:43;;;;;;;23.80;13.57;;;7.00;99.90;;;;;;5051234;28;20025;-58
2021/11/03 08:11:11;;;;;;;25.17;13.50;;;7.00;99.90;;;;;;5051464;28;20025;-59
2021/11/03 08:13:37;;;;;;;26.75;13.85;;;7.00;99.90;;;;;;5050608;28;20020;-60
2021/11/03 08:16:03;;;;;;;26.73;13.52;;;7.00;99.90;;;;;;5049913;28;20036;-57
2021/11/03 08:18:32;;;;;;;25.83;12.90;;;7.00;99.90;;;;;;5050926;28;20040;-58
2021/11/03 08:20:58;;;;;;;34.33;14.93;;;7.10;99.90;;;;;;5049655;28;20406;-58
2021/11/03 08:23:25;;;;;;;28.75;13.43;;;7.10;99.90;;;;;;5050307;28;20075;-57
2021/11/03 08:25:51;;;;;;;29.92;13.15;;;7.10;99.90;;;;;;5049824;28;20020;-59
2021/11/03 08:28:17;;;;;;;23.42;12.80;;;7.20;99.90;;;;;;5051266;28;20021;-58
2021/11/03 08:30:45;;;;;;;26.60;12.77;;;7.20;99.90;;;;;;5050129;28;20454;-60
2021/11/03 08:33:28;;;;;;;25.15;12.93;;;7.20;99.90;;;;;;5050480;28;20037;-57
2021/11/03 08:35:55;;;;;;;31.83;12.88;;;7.20;99.90;;;;;;5048074;28;20021;-58
2021/11/03 08:38:23;;;;;;;21.75;11.85;;;7.30;99.90;;;;;;5051176;28;20395;-60
2021/11/03 08:40:50;;;;;;;21.38;11.98;;;7.20;99.90;;;;;;5050022;28;20106;-55
2021/11/03 08:43:18;;;;;;;27.73;11.77;;;7.20;99.90;;;;;;5050016;28;20435;-59
2021/11/03 08:45:44;;;;;;;24.20;11.32;;;7.30;99.90;;;;;;5048340;28;20086;-58
2021/11/03 08:48:10;;;;;;;21.95;11.38;;;7.30;99.90;;;;;;5050680;28;20021;-58
2021/11/03 08:50:37;;;;;;;20.40;10.60;;;7.40;99.90;;;;;;5050414;28;20027;-60
2021/11/03 08:53:04;;;;;;;22.02;12.05;;;7.40;99.90;;;;;;5046971;28;20021;-57
2021/11/03 08:55:31;;;;;;;23.70;12.07;;;7.40;99.90;;;;;;5049310;28;20032;-58
2021/11/03 08:57:59;;;;;;;21.70;11.82;;;7.40;99.90;;;;;;5049951;28;20509;-58
2021/11/03 09:00:29;;;;;;;26.02;11.50;;;7.50;99.90;;;;;;5047884;28;20526;-60
2021/11/03 09:02:56;;;;;;;19.67;10.95;;;7.60;99.90;;;;;;5049896;28;20055;-56
2021/11/03 09:05:24;;;;;;;23.10;11.35;;;7.60;99.90;;;;;;5048916;28;20021;-58
2021/11/03 09:07:50;;;;;;;19.13;11.20;;;7.60;99.90;;;;;;5049463;28;20020;-60
2021/11/03 09:10:17;;;;;;;19.73;11.57;;;7.60;99.90;;;;;;5049520;28;20021;-56
2021/11/03 09:12:45;;;;;;;24.25;12.15;;;7.60;99.90;;;;;;5048905;28;20028;-58
2021/11/03 09:15:10;;;;;;;23.88;11.48;;;7.70;99.90;;;;;;5047371;28;20033;-56
2021/11/03 09:17:37;;;;;;;20.95;11.25;;;7.70;99.90;;;;;;5050087;28;20114;-56
2021/11/03 09:20:05;;;;;;;21.08;11.90;;;7.70;99.90;;;;;;5049599;28;20406;-57
2021/11/03 09:22:31;;;;;;;23.40;13.60;;;7.70;99.90;;;;;;5049686;28;20052;-58
2021/11/03 09:24:56;;;;;;;37.00;13.07;;;7.70;99.90;;;;;;5049502;28;20037;-56
2021/11/03 09:27:22;;;;;;;27.77;14.00;;;7.80;99.90;;;;;;5050478;28;20280;-58
2021/11/03 09:29:51;;;;;;;27.63;13.20;;;7.90;99.90;;;;;;5049702;28;20036;-57
2021/11/03 09:32:21;;;;;;;36.55;13.82;;;7.90;99.90;;;;;;5049724;28;20491;-56
2021/11/03 09:34:51;;;;;;;34.88;12.27;;;7.90;99.90;;;;;;5031539;28;20060;-58
2021/11/03 09:37:20;;;;;;;18.65;11.48;;;7.90;99.90;;;;;;5049612;28;20025;-58
2021/11/03 09:39:47;;;;;;;23.80;11.90;;;7.90;99.90;;;;;;5050283;28;20116;-56
2021/11/03 09:42:15;;;;;;;25.27;12.50;;;7.90;99.90;;;;;;5049292;28;20116;-59
2021/11/03 09:44:43;;;;;;;22.95;11.10;;;8.00;99.90;;;;;;5059672;23;20087;-64
2021/11/03 09:47:23;;;;;;;36.92;12.23;;;8.00;99.90;;;;;;5030398;28;20025;-64
2021/11/03 09:49:59;;;;;;;29.55;11.77;;;8.00;99.90;;;;;;5043854;28;20032;-63
2021/11/03 09:52:38;;;;;;;26.63;12.60;;;8.10;99.90;;;;;;5049646;28;20047;-65
2021/11/03 09:55:27;;;;;;;28.17;12.48;;;8.10;99.90;;;;;;5050063;28;20033;-64
2021/11/03 09:58:03;;;;;;;22.23;12.32;;;8.10;99.90;;;;;;5046789;28;20030;-64
2021/11/03 10:00:40;;;;;;;35.90;12.18;;;8.20;99.90;;;;;;5024893;28;20025;-64
2021/11/03 10:03:43;;;;;;;36.80;12.75;;;8.20;99.90;;;;;;5029819;28;20112;-64
2021/11/03 10:06:18;;;;;;;22.95;11.02;;;8.20;99.90;;;;;;5030568;28;20487;-65
2021/11/03 10:08:46;;;;;;;18.95;10.35;;;8.30;99.90;;;;;;5013183;28;20026;-62
2021/11/03 10:11:25;;;;;;;27.73;11.95;;;8.30;99.90;;;;;;5040374;28;20063;-64
2021/11/03 10:13:54;;;;;;;29.27;13.10;;;8.30;99.90;;;;;;5016853;28;20028;-64
2021/11/03 10:16:19;;;;;;;32.13;12.82;;;8.40;99.90;;;;;;5030315;28;20079;-64
2021/11/03 10:18:57;;;;;;;28.88;12.52;;;8.40;99.90;;;;;;5030287;28;20021;-64
2021/11/03 10:21:30;;;;;;;18.80;11.07;;;8.40;99.90;;;;;;5030477;28;20075;-64
2021/11/03 10:24:31;;;;;;;19.13;11.13;;;8.40;99.90;;;;;;5017693;28;20060;-64
2021/11/03 10:27:09;;;;;;;27.95;10.57;;;8.30;99.90;;;;;;5038017;28;20037;-64
2021/11/03 10:29:42;;;;;;;31.50;11.05;;;8.40;99.90;;;;;;5031136;28;20119;-65
2021/11/03 10:32:08;;;;;;;18.93;10.30;;;8.40;99.90;;;;;;5033172;28;20053;-64
2021/11/03 10:34:33;;;;;;;19.88;11.38;;;8.40;99.90;;;;;;5029834;28;20056;-64
2021/11/03 10:37:21;;;;;;;31.17;12.43;;;8.40;99.90;;;;;;5029825;28;20026;-65
2021/11/03 10:40:22;;;;;;;31.05;11.95;;;8.30;99.90;;;;;;5029412;28;20036;-64
2021/11/03 10:42:56;;;;;;;26.95;11.25;;;8.30;99.90;;;;;;5026483;28;20559;-65
2021/11/03 10:45:33;;;;;;;;;;;8.30;99.90;;;;;;5021738;28;20033;-64
2021/11/03 10:48:11;;;;;;;29.30;11.75;;;8.30;99.90;;;;;;5027272;28;20390;-64
2021/11/03 10:51:00;;;;;;;27.13;11.60;;;8.30;99.90;;;;;;5029615;28;20025;-63
2021/11/03 10:53:27;;;;;;;31.80;12.52;;;8.30;99.90;;;;;;5029865;28;20096;-63
2021/11/03 10:56:20;;;;;;;24.88;11.00;;;8.30;99.90;;;;;;5030167;28;20449;-64
2021/11/03 10:58:56;;;;;;;44.05;13.35;;;8.30;99.90;;;;;;5029780;28;20095;-64
2021/11/03 11:01:33;;;;;;;37.13;11.30;;;8.30;99.90;;;;;;5028298;28;20416;-65
2021/11/03 11:04:31;;;;;;;26.58;11.77;;;8.30;99.90;;;;;;5041488;28;20037;-64
2021/11/03 11:07:05;;;;;;;26.73;12.43;;;8.30;99.90;;;;;;5047441;28;20037;-64
2021/11/03 11:09:41;;;;;;;24.77;12.37;;;8.30;99.90;;;;;;5027579;28;20514;-65
2021/11/03 11:12:32;;;;;;;26.15;12.98;;;8.30;99.90;;;;;;5029873;28;20766;-64
2021/11/03 11:15:03;;;;;;;49.22;13.55;;;8.30;99.90;;;;;;5025309;28;20049;-63
2021/11/03 11:17:52;;;;;;;24.92;12.20;;;8.30;99.90;;;;;;5033599;28;20079;-64
2021/11/03 11:20:38;;;;;;;24.88;10.15;;;8.30;99.90;;;;;;5046419;28;20029;-65
2021/11/03 11:23:35;;;;;;;27.48;10.63;;;8.30;99.90;;;;;;5052437;28;20509;-64
2021/11/03 11:26:16;;;;;;;25.98;11.90;;;8.30;99.90;;;;;;5043035;28;20087;-65
2021/11/03 11:29:26;;;;;;;23.33;10.73;;;8.30;99.90;;;;;;5032607;28;20022;-65
2021/11/03 11:32:13;;;;;;;24.35;10.60;;;8.30;99.90;;;;;;5010149;28;20061;-63
2021/11/03 11:34:47;;;;;;;35.08;13.18;;;8.40;99.90;;;;;;5033519;28;20434;-66
2021/11/03 11:37:17;;;;;;;27.23;11.07;;;8.30;99.90;;;;;;5034188;28;20400;-65
2021/11/03 11:40:01;;;;;;;28.90;12.27;;;8.30;99.90;;;;;;5028640;28;20476;-66
2021/11/03 11:42:40;;;;;;;27.83;11.93;;;8.40;99.90;;;;;;5031696;28;20498;-65
2021/11/03 11:45:21;;;;;;;23.40;12.15;;;8.40;99.90;;;;;;5031890;28;21112;-65
2021/11/03 11:47:52;;;;;;;18.40;10.65;;;8.40;99.90;;;;;;5032770;28;20102;-65
2021/11/03 11:50:51;;;;;;;35.65;11.05;;;8.30;99.90;;;;;;5034347;28;20151;-66
2021/11/03 11:53:28;;;;;;;27.30;10.90;;;8.30;99.90;;;;;;5031650;28;20034;-64
2021/11/03 11:56:06;;;;;;;28.23;12.88;;;8.30;99.90;;;;;;5030540;28;20034;-65
2021/11/03 11:58:33;;;;;;;28.42;10.55;;;8.30;99.90;;;;;;5031639;28;20368;-65
2021/11/03 12:01:14;;;;;;;23.35;12.32;;;8.30;99.90;;;;;;5031097;28;20159;-65
2021/11/03 12:03:58;;;;;;;34.40;11.40;;;8.30;99.90;;;;;;5032868;28;20048;-65
2021/11/03 12:06:38;;;;;;;21.85;10.70;;;8.30;99.90;;;;;;5036474;28;20077;-64
2021/11/03 12:09:33;;;;;;;21.52;10.38;;;8.30;99.90;;;;;;5035970;28;20025;-65
2021/11/03 12:12:02;;;;;;;13.23;7.78;;;8.30;99.90;;;;;;5030680;28;20033;-65
2021/11/03 12:14:49;;;;;;;13.75;7.40;;;8.30;99.90;;;;;;5034557;28;20025;-64
2021/11/03 12:17:54;;;;;;;15.10;6.88;;;8.30;99.90;;;;;;5032245;28;20458;-65
2021/11/03 12:20:26;;;;;;;14.85;5.97;;;8.30;99.90;;;;;;5027005;28;20063;-65
2021/11/03 12:22:52;;;;;;;28.27;6.45;;;8.30;99.90;;;;;;5045987;28;20083;-65
2021/11/03 12:25:17;;;;;;;14.25;7.22;;;8.30;99.90;;;;;;5032882;28;20785;-64
2021/11/03 12:27:45;;;;;;;9.07;5.55;;;8.30;99.90;;;;;;5031768;28;20112;-64
2021/11/03 12:30:35;;;;;;;20.67;5.70;;;8.30;99.90;;;;;;5030406;28;20033;-65
2021/11/03 12:33:09;;;;;;;10.80;6.13;;;8.30;99.90;;;;;;5031463;28;20025;-65
2021/11/03 12:35:35;;;;;;;18.88;6.68;;;8.30;99.90;;;;;;5034447;28;20029;-65
2021/11/03 12:38:00;;;;;;;14.70;6.47;;;8.20;99.90;;;;;;5035165;28;20449;-63
2021/11/03 12:40:45;;;;;;;12.90;7.00;;;8.30;99.90;;;;;;5034130;28;20053;-64
2021/11/03 12:43:20;;;;;;;11.82;6.30;;;8.20;99.90;;;;;;5042998;28;20028;-64
2021/11/03 12:46:00;;;;;;;12.57;7.72;;;8.20;99.90;;;;;;5043423;28;20033;-65
2021/11/03 12:48:55;;;;;;;21.92;7.78;;;8.30;99.90;;;;;;5027279;28;20018;-65
2021/11/03 12:51:44;;;;;;;14.07;8.15;;;8.30;99.90;;;;;;5039964;28;20045;-66
2021/11/03 12:54:20;;;;;;;14.60;9.05;;;8.30;99.90;;;;;;5050863;28;20060;-65